sensor_id;sensor_type;location;lat;lon;timestamp;temperature;humidity
40340;DHT22;26044;50.864;20.658;2022-12-07T00:01:40;1.70;99.90
40340;DHT22;26044;50.864;20.658;2022-12-07T00:04:23;1.70;99.90
40340;DHT22;26044;50.864;20.658;2022-12-07T00:06:52;1.70;99.90
40340;DHT22;26044;50.864;20.658;2022-12-07T00:09:19;1.70;99.90
40340;DHT22;26044;50.864;20.658;2022-12-07T00:11:49;1.70;99.90
40340;DHT22;26044;50.864;20.658;2022-12-07T00:14:17;1.70;99.90
40340;DHT22;26044;50.864;20.658;2022-12-07T00:16:45;1.70;99.90
40340;DHT22;26044;50.864;20.658;2022-12-07T00:19:13;1.70;99.90
40340;DHT22;26044;50.864;20.658;2022-12-07T00:21:40;1.70;99.90
40340;DHT22;26044;50.864;20.658;2022-12-07T00:24:07;1.60;99.90
40340;DHT22;26044;50.864;20.658;2022-12-07T00:26:36;1.60;99.90
40340;DHT22;26044;50.864;20.658;2022-12-07T00:29:07;1.60;99.90
40340;DHT22;26044;50.864;20.658;2022-12-07T00:31:37;1.60;99.90
40340;DHT22;26044;50.864;20.658;2022-12-07T00:34:06;1.60;99.90
40340;DHT22;26044;50.864;20.658;2022-12-07T00:36:33;1.70;99.90
40340;DHT22;26044;50.864;20.658;2022-12-07T00:39:01;1.60;99.90
40340;DHT22;26044;50.864;20.658;2022-12-07T00:41:29;1.70;99.90
40340;DHT22;26044;50.864;20.658;2022-12-07T00:43:56;1.60;99.90
40340;DHT22;26044;50.864;20.658;2022-12-07T00:46:25;1.60;99.90
40340;DHT22;26044;50.864;20.658;2022-12-07T00:48:53;1.60;99.90
40340;DHT22;26044;50.864;20.658;2022-12-07T00:51:22;1.70;99.90
40340;DHT22;26044;50.864;20.658;2022-12-07T00:53:50;1.70;99.90
40340;DHT22;26044;50.864;20.658;2022-12-07T00:56:22;1.70;99.90
40340;DHT22;26044;50.864;20.658;2022-12-07T00:58:59;1.70;99.90
40340;DHT22;26044;50.864;20.658;2022-12-07T01:01:29;1.70;99.90
40340;DHT22;26044;50.864;20.658;2022-12-07T01:03:58;1.70;99.90
40340;DHT22;26044;50.864;20.658;2022-12-07T01:06:28;1.70;99.90
40340;DHT22;26044;50.864;20.658;2022-12-07T01:08:55;1.70;99.90
40340;DHT22;26044;50.864;20.658;2022-12-07T01:11:25;1.70;99.90
40340;DHT22;26044;50.864;20.658;2022-12-07T01:13:54;1.70;99.90
40340;DHT22;26044;50.864;20.658;2022-12-07T01:16:24;1.60;99.90
40340;DHT22;26044;50.864;20.658;2022-12-07T01:18:53;1.60;99.90
40340;DHT22;26044;50.864;20.658;2022-12-07T01:21:32;1.70;99.90
40340;DHT22;26044;50.864;20.658;2022-12-07T01:24:03;1.70;99.90
40340;DHT22;26044;50.864;20.658;2022-12-07T01:26:29;1.70;99.90
40340;DHT22;26044;50.864;20.658;2022-12-07T01:28:56;1.70;99.90
40340;DHT22;26044;50.864;20.658;2022-12-07T01:31:27;1.60;99.90
40340;DHT22;26044;50.864;20.658;2022-12-07T01:33:56;1.60;99.90
40340;DHT22;26044;50.864;20.658;2022-12-07T01:36:29;1.70;99.90
40340;DHT22;26044;50.864;20.658;2022-12-07T01:39:02;1.70;99.90
40340;DHT22;26044;50.864;20.658;2022-12-07T01:41:33;1.70;99.90
40340;DHT22;26044;50.864;20.658;2022-12-07T01:46:57;1.60;99.90
40340;DHT22;26044;50.864;20.658;2022-12-07T01:49:46;1.70;99.90
40340;DHT22;26044;50.864;20.658;2022-12-07T01:52:25;1.70;99.90
40340;DHT22;26044;50.864;20.658;2022-12-07T01:54:57;1.70;99.90
40340;DHT22;26044;50.864;20.658;2022-12-07T01:57:26;1.70;99.90
40340;DHT22;26044;50.864;20.658;2022-12-07T01:59:54;1.70;99.90
40340;DHT22;26044;50.864;20.658;2022-12-07T02:02:34;1.60;99.90
40340;DHT22;26044;50.864;20.658;2022-12-07T02:05:03;1.70;99.90
40340;DHT22;26044;50.864;20.658;2022-12-07T02:07:31;1.70;99.90
40340;DHT22;26044;50.864;20.658;2022-12-07T02:12:39;1.70;99.90
40340;DHT22;26044;50.864;20.658;2022-12-07T02:15:06;1.70;99.90
40340;DHT22;26044;50.864;20.658;2022-12-07T02:17:58;1.70;99.90
40340;DHT22;26044;50.864;20.658;2022-12-07T02:20:33;1.70;99.90
40340;DHT22;26044;50.864;20.658;2022-12-07T02:29:20;1.70;99.90
40340;DHT22;26044;50.864;20.658;2022-12-07T02:34:48;1.70;99.90
40340;DHT22;26044;50.864;20.658;2022-12-07T02:37:36;1.70;99.90
40340;DHT22;26044;50.864;20.658;2022-12-07T02:40:14;1.60;99.90
40340;DHT22;26044;50.864;20.658;2022-12-07T02:42:51;1.60;99.90
40340;DHT22;26044;50.864;20.658;2022-12-07T02:45:21;1.60;99.90
40340;DHT22;26044;50.864;20.658;2022-12-07T02:47:51;1.70;99.90
40340;DHT22;26044;50.864;20.658;2022-12-07T02:50:22;1.70;99.90
40340;DHT22;26044;50.864;20.658;2022-12-07T02:52:49;1.60;99.90
40340;DHT22;26044;50.864;20.658;2022-12-07T02:55:21;1.60;99.90
40340;DHT22;26044;50.864;20.658;2022-12-07T02:58:06;1.60;99.90
40340;DHT22;26044;50.864;20.658;2022-12-07T03:00:52;1.70;99.90
40340;DHT22;26044;50.864;20.658;2022-12-07T03:03:20;1.70;99.90
40340;DHT22;26044;50.864;20.658;2022-12-07T03:11:32;1.70;99.90
40340;DHT22;26044;50.864;20.658;2022-12-07T03:14:20;1.70;99.90
40340;DHT22;26044;50.864;20.658;2022-12-07T03:16:56;1.70;99.90
40340;DHT22;26044;50.864;20.658;2022-12-07T03:19:26;1.70;99.90
40340;DHT22;26044;50.864;20.658;2022-12-07T03:22:13;1.60;99.90
40340;DHT22;26044;50.864;20.658;2022-12-07T03:24:45;1.60;99.90
40340;DHT22;26044;50.864;20.658;2022-12-07T03:27:25;1.60;99.90
40340;DHT22;26044;50.864;20.658;2022-12-07T03:30:05;1.60;99.90
40340;DHT22;26044;50.864;20.658;2022-12-07T03:35:25;1.60;99.90
40340;DHT22;26044;50.864;20.658;2022-12-07T03:37:54;1.60;99.90
40340;DHT22;26044;50.864;20.658;2022-12-07T03:40:43;1.60;99.90
40340;DHT22;26044;50.864;20.658;2022-12-07T03:43:11;1.60;99.90
40340;DHT22;26044;50.864;20.658;2022-12-07T03:45:41;1.60;99.90
40340;DHT22;26044;50.864;20.658;2022-12-07T03:48:22;1.60;99.90
40340;DHT22;26044;50.864;20.658;2022-12-07T03:51:01;1.60;99.90
40340;DHT22;26044;50.864;20.658;2022-12-07T03:53:33;1.60;99.90
40340;DHT22;26044;50.864;20.658;2022-12-07T03:56:03;1.60;99.90
40340;DHT22;26044;50.864;20.658;2022-12-07T03:58:30;1.60;99.90
40340;DHT22;26044;50.864;20.658;2022-12-07T04:00:57;1.60;99.90
40340;DHT22;26044;50.864;20.658;2022-12-07T04:03:24;1.60;99.90
40340;DHT22;26044;50.864;20.658;2022-12-07T04:05:51;1.60;99.90
40340;DHT22;26044;50.864;20.658;2022-12-07T04:08:18;1.60;99.90
40340;DHT22;26044;50.864;20.658;2022-12-07T04:10:45;1.60;99.90
40340;DHT22;26044;50.864;20.658;2022-12-07T04:13:12;1.60;99.90
40340;DHT22;26044;50.864;20.658;2022-12-07T04:15:39;1.60;99.90
40340;DHT22;26044;50.864;20.658;2022-12-07T04:18:06;1.60;99.90
40340;DHT22;26044;50.864;20.658;2022-12-07T04:20:32;1.60;99.90
40340;DHT22;26044;50.864;20.658;2022-12-07T04:22:59;1.60;99.90
40340;DHT22;26044;50.864;20.658;2022-12-07T04:25:26;1.60;99.90
40340;DHT22;26044;50.864;20.658;2022-12-07T04:27:53;1.60;99.90
40340;DHT22;26044;50.864;20.658;2022-12-07T04:30:20;1.60;99.90
40340;DHT22;26044;50.864;20.658;2022-12-07T04:32:47;1.50;99.90
40340;DHT22;26044;50.864;20.658;2022-12-07T04:35:14;1.50;99.90
40340;DHT22;26044;50.864;20.658;2022-12-07T04:37:41;1.60;99.90
40340;DHT22;26044;50.864;20.658;2022-12-07T04:40:08;1.50;99.90
40340;DHT22;26044;50.864;20.658;2022-12-07T04:42:39;1.60;99.90
40340;DHT22;26044;50.864;20.658;2022-12-07T04:45:06;1.60;99.90
40340;DHT22;26044;50.864;20.658;2022-12-07T04:47:33;1.60;99.90
40340;DHT22;26044;50.864;20.658;2022-12-07T04:50:00;1.50;99.90
40340;DHT22;26044;50.864;20.658;2022-12-07T04:52:27;1.60;99.90
40340;DHT22;26044;50.864;20.658;2022-12-07T04:54:54;1.60;99.90
40340;DHT22;26044;50.864;20.658;2022-12-07T04:57:20;1.60;99.90
40340;DHT22;26044;50.864;20.658;2022-12-07T04:59:47;1.60;99.90
40340;DHT22;26044;50.864;20.658;2022-12-07T05:02:16;1.60;99.90
40340;DHT22;26044;50.864;20.658;2022-12-07T05:04:44;1.60;99.90
40340;DHT22;26044;50.864;20.658;2022-12-07T05:07:10;1.60;99.90
40340;DHT22;26044;50.864;20.658;2022-12-07T05:09:37;1.60;99.90
40340;DHT22;26044;50.864;20.658;2022-12-07T05:12:08;1.60;99.90
40340;DHT22;26044;50.864;20.658;2022-12-07T05:14:35;1.50;99.90
40340;DHT22;26044;50.864;20.658;2022-12-07T05:17:02;1.50;99.90
40340;DHT22;26044;50.864;20.658;2022-12-07T05:19:28;1.50;99.90
40340;DHT22;26044;50.864;20.658;2022-12-07T05:21:55;1.60;99.90
40340;DHT22;26044;50.864;20.658;2022-12-07T05:24:22;1.60;99.90
40340;DHT22;26044;50.864;20.658;2022-12-07T05:26:49;1.60;99.90
40340;DHT22;26044;50.864;20.658;2022-12-07T05:29:16;1.50;99.90
40340;DHT22;26044;50.864;20.658;2022-12-07T05:31:44;1.50;99.90
40340;DHT22;26044;50.864;20.658;2022-12-07T05:34:13;1.60;99.90
40340;DHT22;26044;50.864;20.658;2022-12-07T05:36:41;1.50;99.90
40340;DHT22;26044;50.864;20.658;2022-12-07T05:39:12;1.60;99.90
40340;DHT22;26044;50.864;20.658;2022-12-07T05:41:38;1.50;99.90
40340;DHT22;26044;50.864;20.658;2022-12-07T05:44:24;1.50;99.90
40340;DHT22;26044;50.864;20.658;2022-12-07T05:46:51;1.50;99.90
40340;DHT22;26044;50.864;20.658;2022-12-07T05:49:19;1.60;99.90
40340;DHT22;26044;50.864;20.658;2022-12-07T05:51:46;1.60;99.90
40340;DHT22;26044;50.864;20.658;2022-12-07T05:54:12;1.60;99.90
40340;DHT22;26044;50.864;20.658;2022-12-07T05:56:39;1.60;99.90
40340;DHT22;26044;50.864;20.658;2022-12-07T05:59:07;1.50;99.90
40340;DHT22;26044;50.864;20.658;2022-12-07T06:01:57;1.50;99.90
40340;DHT22;26044;50.864;20.658;2022-12-07T06:04:26;1.50;99.90
40340;DHT22;26044;50.864;20.658;2022-12-07T06:06:54;1.50;99.90
40340;DHT22;26044;50.864;20.658;2022-12-07T06:09:24;1.50;99.90
40340;DHT22;26044;50.864;20.658;2022-12-07T06:11:51;1.50;99.90
40340;DHT22;26044;50.864;20.658;2022-12-07T06:14:37;1.50;99.90
40340;DHT22;26044;50.864;20.658;2022-12-07T06:17:05;1.50;99.90
40340;DHT22;26044;50.864;20.658;2022-12-07T06:19:32;1.50;99.90
40340;DHT22;26044;50.864;20.658;2022-12-07T06:21:59;1.50;99.90
40340;DHT22;26044;50.864;20.658;2022-12-07T06:24:26;1.50;99.90
40340;DHT22;26044;50.864;20.658;2022-12-07T06:26:53;1.50;99.90
40340;DHT22;26044;50.864;20.658;2022-12-07T06:29:20;1.50;99.90
40340;DHT22;26044;50.864;20.658;2022-12-07T06:31:46;1.50;99.90
40340;DHT22;26044;50.864;20.658;2022-12-07T06:34:16;1.50;99.90
40340;DHT22;26044;50.864;20.658;2022-12-07T06:36:43;1.50;99.90
40340;DHT22;26044;50.864;20.658;2022-12-07T06:39:11;1.50;99.90
40340;DHT22;26044;50.864;20.658;2022-12-07T06:41:38;1.50;99.90
40340;DHT22;26044;50.864;20.658;2022-12-07T06:44:06;1.50;99.90
40340;DHT22;26044;50.864;20.658;2022-12-07T06:46:33;1.50;99.90
40340;DHT22;26044;50.864;20.658;2022-12-07T06:49:03;1.50;99.90
40340;DHT22;26044;50.864;20.658;2022-12-07T06:51:30;1.50;99.90
40340;DHT22;26044;50.864;20.658;2022-12-07T06:53:57;1.50;99.90
40340;DHT22;26044;50.864;20.658;2022-12-07T06:56:24;1.50;99.90
40340;DHT22;26044;50.864;20.658;2022-12-07T06:58:50;1.50;99.90
40340;DHT22;26044;50.864;20.658;2022-12-07T07:01:18;1.50;99.90
40340;DHT22;26044;50.864;20.658;2022-12-07T07:03:46;1.50;99.90
40340;DHT22;26044;50.864;20.658;2022-12-07T07:06:13;1.50;99.90
40340;DHT22;26044;50.864;20.658;2022-12-07T07:08:40;1.50;99.90
40340;DHT22;26044;50.864;20.658;2022-12-07T07:11:08;1.50;99.90
40340;DHT22;26044;50.864;20.658;2022-12-07T07:13:35;1.50;99.90
40340;DHT22;26044;50.864;20.658;2022-12-07T07:16:02;1.50;99.90
40340;DHT22;26044;50.864;20.658;2022-12-07T07:18:29;1.50;99.90
40340;DHT22;26044;50.864;20.658;2022-12-07T07:20:56;1.50;99.90
40340;DHT22;26044;50.864;20.658;2022-12-07T07:23:23;1.50;99.90
40340;DHT22;26044;50.864;20.658;2022-12-07T07:25:50;1.50;99.90
40340;DHT22;26044;50.864;20.658;2022-12-07T07:28:17;1.50;99.90
40340;DHT22;26044;50.864;20.658;2022-12-07T07:30:44;1.50;99.90
40340;DHT22;26044;50.864;20.658;2022-12-07T07:33:11;1.50;99.90
40340;DHT22;26044;50.864;20.658;2022-12-07T07:35:38;1.50;99.90
40340;DHT22;26044;50.864;20.658;2022-12-07T07:38:06;1.50;99.90
40340;DHT22;26044;50.864;20.658;2022-12-07T07:40:33;1.50;99.90
40340;DHT22;26044;50.864;20.658;2022-12-07T07:43:00;1.50;99.90
40340;DHT22;26044;50.864;20.658;2022-12-07T07:45:27;1.60;99.90
40340;DHT22;26044;50.864;20.658;2022-12-07T07:47:54;1.60;99.90
40340;DHT22;26044;50.864;20.658;2022-12-07T07:50:21;1.60;99.90
40340;DHT22;26044;50.864;20.658;2022-12-07T07:52:48;1.60;99.90
40340;DHT22;26044;50.864;20.658;2022-12-07T07:55:15;1.60;99.90
40340;DHT22;26044;50.864;20.658;2022-12-07T07:57:42;1.70;99.90
40340;DHT22;26044;50.864;20.658;2022-12-07T08:00:15;1.60;99.90
40340;DHT22;26044;50.864;20.658;2022-12-07T08:02:43;1.70;99.90
40340;DHT22;26044;50.864;20.658;2022-12-07T08:05:13;1.70;99.90
40340;DHT22;26044;50.864;20.658;2022-12-07T08:07:40;1.70;99.90
40340;DHT22;26044;50.864;20.658;2022-12-07T08:10:09;1.70;99.90
40340;DHT22;26044;50.864;20.658;2022-12-07T08:12:38;1.70;99.90
40340;DHT22;26044;50.864;20.658;2022-12-07T08:15:27;1.70;99.90
40340;DHT22;26044;50.864;20.658;2022-12-07T08:17:54;1.70;99.90
40340;DHT22;26044;50.864;20.658;2022-12-07T08:20:21;1.70;99.90
40340;DHT22;26044;50.864;20.658;2022-12-07T08:22:48;1.70;99.90
40340;DHT22;26044;50.864;20.658;2022-12-07T08:25:15;1.70;99.90
40340;DHT22;26044;50.864;20.658;2022-12-07T08:27:42;1.70;99.90
40340;DHT22;26044;50.864;20.658;2022-12-07T08:30:09;1.70;99.90
40340;DHT22;26044;50.864;20.658;2022-12-07T08:32:36;1.70;99.90
40340;DHT22;26044;50.864;20.658;2022-12-07T08:35:04;1.70;99.90
40340;DHT22;26044;50.864;20.658;2022-12-07T08:37:31;1.70;99.90
40340;DHT22;26044;50.864;20.658;2022-12-07T08:39:58;1.70;99.90
40340;DHT22;26044;50.864;20.658;2022-12-07T08:42:26;1.70;99.90
40340;DHT22;26044;50.864;20.658;2022-12-07T08:44:57;1.70;99.90
40340;DHT22;26044;50.864;20.658;2022-12-07T08:47:24;1.70;99.90
40340;DHT22;26044;50.864;20.658;2022-12-07T08:49:52;1.70;99.90
40340;DHT22;26044;50.864;20.658;2022-12-07T08:52:20;1.70;99.90
40340;DHT22;26044;50.864;20.658;2022-12-07T08:54:47;1.70;99.90
40340;DHT22;26044;50.864;20.658;2022-12-07T08:57:14;1.70;99.90
40340;DHT22;26044;50.864;20.658;2022-12-07T08:59:40;1.80;99.90
40340;DHT22;26044;50.864;20.658;2022-12-07T09:02:07;1.70;99.90
40340;DHT22;26044;50.864;20.658;2022-12-07T09:04:34;1.80;99.90
40340;DHT22;26044;50.864;20.658;2022-12-07T09:07:01;1.80;99.90
40340;DHT22;26044;50.864;20.658;2022-12-07T09:09:28;1.80;99.90
40340;DHT22;26044;50.864;20.658;2022-12-07T09:11:54;1.80;99.90
40340;DHT22;26044;50.864;20.658;2022-12-07T09:14:21;1.80;99.90
40340;DHT22;26044;50.864;20.658;2022-12-07T09:16:48;1.80;99.90
40340;DHT22;26044;50.864;20.658;2022-12-07T09:19:15;1.80;99.90
40340;DHT22;26044;50.864;20.658;2022-12-07T09:21:42;1.80;99.90
40340;DHT22;26044;50.864;20.658;2022-12-07T09:24:09;1.70;99.90
40340;DHT22;26044;50.864;20.658;2022-12-07T09:26:35;1.80;99.90
40340;DHT22;26044;50.864;20.658;2022-12-07T09:29:02;1.80;99.90
40340;DHT22;26044;50.864;20.658;2022-12-07T09:31:29;1.80;99.90
40340;DHT22;26044;50.864;20.658;2022-12-07T09:33:58;1.80;99.90
40340;DHT22;26044;50.864;20.658;2022-12-07T09:36:25;1.80;99.90
40340;DHT22;26044;50.864;20.658;2022-12-07T09:38:52;1.80;99.90
40340;DHT22;26044;50.864;20.658;2022-12-07T09:41:20;1.80;99.90
40340;DHT22;26044;50.864;20.658;2022-12-07T09:43:47;1.80;99.90
40340;DHT22;26044;50.864;20.658;2022-12-07T09:46:16;1.80;99.90
40340;DHT22;26044;50.864;20.658;2022-12-07T09:48:45;1.80;99.90
40340;DHT22;26044;50.864;20.658;2022-12-07T09:51:16;1.80;99.90
40340;DHT22;26044;50.864;20.658;2022-12-07T09:53:50;1.80;99.90
40340;DHT22;26044;50.864;20.658;2022-12-07T09:56:18;1.80;99.90
40340;DHT22;26044;50.864;20.658;2022-12-07T09:58:46;1.80;99.90
40340;DHT22;26044;50.864;20.658;2022-12-07T10:01:15;1.80;99.90
40340;DHT22;26044;50.864;20.658;2022-12-07T10:06:41;1.80;99.90
40340;DHT22;26044;50.864;20.658;2022-12-07T10:09:13;1.90;99.90
40340;DHT22;26044;50.864;20.658;2022-12-07T10:14:29;1.90;99.90
40340;DHT22;26044;50.864;20.658;2022-12-07T10:17:37;1.90;99.90
40340;DHT22;26044;50.864;20.658;2022-12-07T10:20:22;1.90;99.90
40340;DHT22;26044;50.864;20.658;2022-12-07T10:23:03;1.90;99.90
40340;DHT22;26044;50.864;20.658;2022-12-07T10:25:36;1.90;99.90
40340;DHT22;26044;50.864;20.658;2022-12-07T10:28:12;1.90;99.90
40340;DHT22;26044;50.864;20.658;2022-12-07T10:31:15;2.00;99.90
40340;DHT22;26044;50.864;20.658;2022-12-07T10:33:58;2.00;99.90
40340;DHT22;26044;50.864;20.658;2022-12-07T10:36:36;2.00;99.90
40340;DHT22;26044;50.864;20.658;2022-12-07T10:39:14;2.00;99.90
40340;DHT22;26044;50.864;20.658;2022-12-07T10:44:25;2.00;99.90
40340;DHT22;26044;50.864;20.658;2022-12-07T11:00:23;2.00;99.90
40340;DHT22;26044;50.864;20.658;2022-12-07T11:05:56;2.00;99.90
40340;DHT22;26044;50.864;20.658;2022-12-07T11:08:48;2.00;99.90
40340;DHT22;26044;50.864;20.658;2022-12-07T11:11:38;2.00;99.90
40340;DHT22;26044;50.864;20.658;2022-12-07T11:17:42;2.10;99.90
40340;DHT22;26044;50.864;20.658;2022-12-07T11:20:43;2.10;99.90
40340;DHT22;26044;50.864;20.658;2022-12-07T11:26:24;2.10;99.90
40340;DHT22;26044;50.864;20.658;2022-12-07T11:31:50;2.20;99.90
40340;DHT22;26044;50.864;20.658;2022-12-07T11:37:25;2.20;99.90
40340;DHT22;26044;50.864;20.658;2022-12-07T11:39:58;2.20;99.90
40340;DHT22;26044;50.864;20.658;2022-12-07T11:42:30;2.20;99.90
40340;DHT22;26044;50.864;20.658;2022-12-07T11:45:19;2.10;99.90
40340;DHT22;26044;50.864;20.658;2022-12-07T11:50:41;2.20;99.90
40340;DHT22;26044;50.864;20.658;2022-12-07T11:56:02;2.10;99.90
40340;DHT22;26044;50.864;20.658;2022-12-07T12:03:52;2.20;99.90
40340;DHT22;26044;50.864;20.658;2022-12-07T12:06:20;2.20;99.90
40340;DHT22;26044;50.864;20.658;2022-12-07T12:14:52;2.20;99.90
40340;DHT22;26044;50.864;20.658;2022-12-07T12:23:11;2.20;99.90
40340;DHT22;26044;50.864;20.658;2022-12-07T12:28:30;2.10;99.90
40340;DHT22;26044;50.864;20.658;2022-12-07T12:31:32;2.10;99.90
40340;DHT22;26044;50.864;20.658;2022-12-07T12:34:29;2.20;99.90
40340;DHT22;26044;50.864;20.658;2022-12-07T12:36:48;2.20;99.90
40340;DHT22;26044;50.864;20.658;2022-12-07T12:39:17;2.10;99.90
40340;DHT22;26044;50.864;20.658;2022-12-07T12:46:55;2.10;99.90
40340;DHT22;26044;50.864;20.658;2022-12-07T12:49:30;2.10;99.90
40340;DHT22;26044;50.864;20.658;2022-12-07T12:52:55;2.10;99.90
40340;DHT22;26044;50.864;20.658;2022-12-07T12:55:18;2.10;99.90
40340;DHT22;26044;50.864;20.658;2022-12-07T12:58:21;2.10;99.90
40340;DHT22;26044;50.864;20.658;2022-12-07T13:03:55;2.10;99.90
40340;DHT22;26044;50.864;20.658;2022-12-07T13:08:55;2.10;99.90
40340;DHT22;26044;50.864;20.658;2022-12-07T13:11:32;2.10;99.90
40340;DHT22;26044;50.864;20.658;2022-12-07T13:17:03;2.10;99.90
40340;DHT22;26044;50.864;20.658;2022-12-07T13:28:19;2.10;99.90
40340;DHT22;26044;50.864;20.658;2022-12-07T13:33:28;2.10;99.90
40340;DHT22;26044;50.864;20.658;2022-12-07T13:35:56;2.10;99.90
40340;DHT22;26044;50.864;20.658;2022-12-07T13:38:34;2.10;99.90
40340;DHT22;26044;50.864;20.658;2022-12-07T13:41:15;2.20;99.90
40340;DHT22;26044;50.864;20.658;2022-12-07T13:44:09;2.20;99.90
40340;DHT22;26044;50.864;20.658;2022-12-07T13:47:06;2.20;99.90
40340;DHT22;26044;50.864;20.658;2022-12-07T13:49:53;2.10;99.90
40340;DHT22;26044;50.864;20.658;2022-12-07T13:52:26;2.20;99.90
40340;DHT22;26044;50.864;20.658;2022-12-07T13:55:01;2.20;99.90
40340;DHT22;26044;50.864;20.658;2022-12-07T13:57:35;2.20;99.90
40340;DHT22;26044;50.864;20.658;2022-12-07T14:00:21;2.10;99.90
40340;DHT22;26044;50.864;20.658;2022-12-07T14:03:18;2.10;99.90
40340;DHT22;26044;50.864;20.658;2022-12-07T14:06:25;2.10;99.90
40340;DHT22;26044;50.864;20.658;2022-12-07T14:09:22;2.10;99.90
40340;DHT22;26044;50.864;20.658;2022-12-07T14:11:50;2.10;99.90
40340;DHT22;26044;50.864;20.658;2022-12-07T14:14:22;2.10;99.90
40340;DHT22;26044;50.864;20.658;2022-12-07T14:17:00;2.10;99.90
40340;DHT22;26044;50.864;20.658;2022-12-07T14:19:43;2.10;99.90
40340;DHT22;26044;50.864;20.658;2022-12-07T14:27:46;2.10;99.90
40340;DHT22;26044;50.864;20.658;2022-12-07T14:30:17;2.10;99.90
40340;DHT22;26044;50.864;20.658;2022-12-07T14:32:45;2.10;99.90
40340;DHT22;26044;50.864;20.658;2022-12-07T14:35:17;2.10;99.90
40340;DHT22;26044;50.864;20.658;2022-12-07T14:37:47;2.10;99.90
40340;DHT22;26044;50.864;20.658;2022-12-07T14:40:19;2.10;99.90
40340;DHT22;26044;50.864;20.658;2022-12-07T14:42:48;2.10;99.90
40340;DHT22;26044;50.864;20.658;2022-12-07T14:45:19;2.10;99.90
40340;DHT22;26044;50.864;20.658;2022-12-07T14:47:46;2.10;99.90
40340;DHT22;26044;50.864;20.658;2022-12-07T14:50:38;2.10;99.90
40340;DHT22;26044;50.864;20.658;2022-12-07T14:53:35;2.10;99.90
40340;DHT22;26044;50.864;20.658;2022-12-07T14:56:03;2.10;99.90
40340;DHT22;26044;50.864;20.658;2022-12-07T14:58:31;2.10;99.90
40340;DHT22;26044;50.864;20.658;2022-12-07T15:00:59;2.10;99.90
40340;DHT22;26044;50.864;20.658;2022-12-07T15:03:26;2.10;99.90
40340;DHT22;26044;50.864;20.658;2022-12-07T15:05:53;2.10;99.90
40340;DHT22;26044;50.864;20.658;2022-12-07T15:08:20;2.10;99.90
40340;DHT22;26044;50.864;20.658;2022-12-07T15:10:47;2.10;99.90
40340;DHT22;26044;50.864;20.658;2022-12-07T15:13:13;2.20;99.90
40340;DHT22;26044;50.864;20.658;2022-12-07T15:15:59;2.10;99.90
40340;DHT22;26044;50.864;20.658;2022-12-07T15:18:26;2.10;99.90
40340;DHT22;26044;50.864;20.658;2022-12-07T15:20:53;2.10;99.90
40340;DHT22;26044;50.864;20.658;2022-12-07T15:23:21;2.10;99.90
40340;DHT22;26044;50.864;20.658;2022-12-07T15:25:48;2.10;99.90
40340;DHT22;26044;50.864;20.658;2022-12-07T15:28:15;2.10;99.90
40340;DHT22;26044;50.864;20.658;2022-12-07T15:30:44;2.10;99.90
40340;DHT22;26044;50.864;20.658;2022-12-07T15:33:11;2.10;99.90
40340;DHT22;26044;50.864;20.658;2022-12-07T15:35:40;2.10;99.90
40340;DHT22;26044;50.864;20.658;2022-12-07T15:38:07;2.10;99.90
40340;DHT22;26044;50.864;20.658;2022-12-07T15:40:34;2.10;99.90
40340;DHT22;26044;50.864;20.658;2022-12-07T15:43:02;2.10;99.90
40340;DHT22;26044;50.864;20.658;2022-12-07T15:45:29;2.10;99.90
40340;DHT22;26044;50.864;20.658;2022-12-07T15:47:56;2.10;99.90
40340;DHT22;26044;50.864;20.658;2022-12-07T15:50:42;2.20;99.90
40340;DHT22;26044;50.864;20.658;2022-12-07T15:53:09;2.10;99.90
40340;DHT22;26044;50.864;20.658;2022-12-07T15:55:40;2.20;99.90
40340;DHT22;26044;50.864;20.658;2022-12-07T15:58:07;2.10;99.90
40340;DHT22;26044;50.864;20.658;2022-12-07T16:00:34;2.20;99.90
40340;DHT22;26044;50.864;20.658;2022-12-07T16:03:00;2.20;99.90
40340;DHT22;26044;50.864;20.658;2022-12-07T16:05:27;2.20;99.90
40340;DHT22;26044;50.864;20.658;2022-12-07T16:07:54;2.20;99.90
40340;DHT22;26044;50.864;20.658;2022-12-07T16:10:21;2.20;99.90
40340;DHT22;26044;50.864;20.658;2022-12-07T16:12:48;2.20;99.90
40340;DHT22;26044;50.864;20.658;2022-12-07T16:15:14;2.20;99.90
40340;DHT22;26044;50.864;20.658;2022-12-07T16:17:48;2.20;99.90
40340;DHT22;26044;50.864;20.658;2022-12-07T16:20:16;2.20;99.90
40340;DHT22;26044;50.864;20.658;2022-12-07T16:22:43;2.20;99.90
40340;DHT22;26044;50.864;20.658;2022-12-07T16:25:10;2.20;99.90
40340;DHT22;26044;50.864;20.658;2022-12-07T16:27:36;2.20;99.90
40340;DHT22;26044;50.864;20.658;2022-12-07T16:30:04;2.20;99.90
40340;DHT22;26044;50.864;20.658;2022-12-07T16:32:31;2.20;99.90
40340;DHT22;26044;50.864;20.658;2022-12-07T16:34:58;2.20;99.90
40340;DHT22;26044;50.864;20.658;2022-12-07T16:37:25;2.30;99.90
40340;DHT22;26044;50.864;20.658;2022-12-07T16:39:51;2.30;99.90
40340;DHT22;26044;50.864;20.658;2022-12-07T16:42:18;2.20;99.90
40340;DHT22;26044;50.864;20.658;2022-12-07T16:44:45;2.20;99.90
40340;DHT22;26044;50.864;20.658;2022-12-07T16:47:14;2.20;99.90
40340;DHT22;26044;50.864;20.658;2022-12-07T16:49:42;2.10;99.90
40340;DHT22;26044;50.864;20.658;2022-12-07T16:52:09;2.10;99.90
40340;DHT22;26044;50.864;20.658;2022-12-07T16:54:51;2.10;99.90
40340;DHT22;26044;50.864;20.658;2022-12-07T16:57:22;2.10;99.90
40340;DHT22;26044;50.864;20.658;2022-12-07T16:59:53;2.00;99.90
40340;DHT22;26044;50.864;20.658;2022-12-07T17:02:20;2.00;99.90
40340;DHT22;26044;50.864;20.658;2022-12-07T17:04:47;2.00;99.90
40340;DHT22;26044;50.864;20.658;2022-12-07T17:07:14;2.00;99.90
40340;DHT22;26044;50.864;20.658;2022-12-07T17:09:42;1.90;99.90
40340;DHT22;26044;50.864;20.658;2022-12-07T17:12:09;1.90;99.90
40340;DHT22;26044;50.864;20.658;2022-12-07T17:14:35;1.90;99.90
40340;DHT22;26044;50.864;20.658;2022-12-07T17:17:24;1.90;99.90
40340;DHT22;26044;50.864;20.658;2022-12-07T17:19:50;1.90;99.90
40340;DHT22;26044;50.864;20.658;2022-12-07T17:22:17;1.90;99.90
40340;DHT22;26044;50.864;20.658;2022-12-07T17:24:44;1.80;99.90
40340;DHT22;26044;50.864;20.658;2022-12-07T17:27:11;1.90;99.90
40340;DHT22;26044;50.864;20.658;2022-12-07T17:29:37;1.90;99.90
40340;DHT22;26044;50.864;20.658;2022-12-07T17:32:06;1.90;99.90
40340;DHT22;26044;50.864;20.658;2022-12-07T17:34:35;1.90;99.90
40340;DHT22;26044;50.864;20.658;2022-12-07T17:37:03;1.90;99.90
40340;DHT22;26044;50.864;20.658;2022-12-07T17:39:31;1.90;99.90
40340;DHT22;26044;50.864;20.658;2022-12-07T17:41:58;2.00;99.90
40340;DHT22;26044;50.864;20.658;2022-12-07T17:44:44;1.90;99.90
40340;DHT22;26044;50.864;20.658;2022-12-07T17:47:11;1.90;99.90
40340;DHT22;26044;50.864;20.658;2022-12-07T17:49:38;1.90;99.90
40340;DHT22;26044;50.864;20.658;2022-12-07T17:52:04;1.90;99.90